sensor_id;sensor_type;location;lat;lon;timestamp;pressure;altitude;pressure_sealevel;temperature;humidity
9740;BME280;4909;42.680;26.324;2022-08-05T00:01:12;98550.09;;;25.47;59.11
9740;BME280;4909;42.680;26.324;2022-08-05T00:03:40;98553.75;;;25.56;58.94
9740;BME280;4909;42.680;26.324;2022-08-05T00:06:07;98550.44;;;25.52;59.23
9740;BME280;4909;42.680;26.324;2022-08-05T00:08:35;98543.47;;;25.41;58.89
9740;BME280;4909;42.680;26.324;2022-08-05T00:11:04;98539.34;;;25.29;59.82
9740;BME280;4909;42.680;26.324;2022-08-05T00:13:32;98537.97;;;25.33;60.09
9740;BME280;4909;42.680;26.324;2022-08-05T00:15:59;98544.63;;;25.39;59.80
9740;BME280;4909;42.680;26.324;2022-08-05T00:18:26;98535.97;;;25.35;59.69
9740;BME280;4909;42.680;26.324;2022-08-05T00:20:54;98520.41;;;25.12;60.27
9740;BME280;4909;42.680;26.324;2022-08-05T00:23:22;98539.13;;;25.23;60.17
9740;BME280;4909;42.680;26.324;2022-08-05T00:25:49;98535.88;;;25.19;59.92
9740;BME280;4909;42.680;26.324;2022-08-05T00:28:16;98552.91;;;25.29;60.15
9740;BME280;4909;42.680;26.324;2022-08-05T00:30:43;98542.25;;;25.36;59.75
9740;BME280;4909;42.680;26.324;2022-08-05T00:33:10;98529.34;;;25.38;59.64
9740;BME280;4909;42.680;26.324;2022-08-05T00:35:37;98524.09;;;25.36;59.30
9740;BME280;4909;42.680;26.324;2022-08-05T00:38:05;98537.63;;;25.28;60.03
9740;BME280;4909;42.680;26.324;2022-08-05T00:40:32;98538.69;;;25.35;60.18
9740;BME280;4909;42.680;26.324;2022-08-05T00:43:01;98540.19;;;25.30;59.79
9740;BME280;4909;42.680;26.324;2022-08-05T00:45:28;98543.38;;;25.25;59.72
9740;BME280;4909;42.680;26.324;2022-08-05T00:47:55;98546.38;;;25.48;59.06
9740;BME280;4909;42.680;26.324;2022-08-05T00:50:22;98533.13;;;25.45;58.97
9740;BME280;4909;42.680;26.324;2022-08-05T00:52:49;98536.00;;;25.51;58.73
9740;BME280;4909;42.680;26.324;2022-08-05T00:55:17;98534.84;;;25.54;58.85
9740;BME280;4909;42.680;26.324;2022-08-05T00:57:44;98532.00;;;25.56;58.51
9740;BME280;4909;42.680;26.324;2022-08-05T01:00:12;98533.69;;;25.57;58.83
9740;BME280;4909;42.680;26.324;2022-08-05T01:02:39;98477.34;;;25.25;58.31
9740;BME280;4909;42.680;26.324;2022-08-05T01:05:06;98526.34;;;25.49;59.26
9740;BME280;4909;42.680;26.324;2022-08-05T01:07:33;98529.56;;;25.52;58.27
9740;BME280;4909;42.680;26.324;2022-08-05T01:10:00;98525.28;;;25.42;58.72
9740;BME280;4909;42.680;26.324;2022-08-05T01:12:29;98525.13;;;25.43;58.95
9740;BME280;4909;42.680;26.324;2022-08-05T01:15:00;98525.31;;;25.50;58.67
9740;BME280;4909;42.680;26.324;2022-08-05T01:17:32;98520.69;;;25.42;58.87
9740;BME280;4909;42.680;26.324;2022-08-05T01:20:08;98527.25;;;25.24;59.68
9740;BME280;4909;42.680;26.324;2022-08-05T01:22:57;98525.00;;;25.11;59.28
9740;BME280;4909;42.680;26.324;2022-08-05T01:25:40;98516.09;;;24.93;60.25
9740;BME280;4909;42.680;26.324;2022-08-05T01:28:22;98511.78;;;25.16;60.09
9740;BME280;4909;42.680;26.324;2022-08-05T01:30:52;98524.75;;;25.30;59.36
9740;BME280;4909;42.680;26.324;2022-08-05T01:33:30;98518.59;;;25.20;59.48
9740;BME280;4909;42.680;26.324;2022-08-05T01:36:00;98514.03;;;25.29;59.25
9740;BME280;4909;42.680;26.324;2022-08-05T01:38:30;98511.19;;;25.38;58.76
9740;BME280;4909;42.680;26.324;2022-08-05T01:40:58;98514.25;;;25.43;59.02
9740;BME280;4909;42.680;26.324;2022-08-05T01:43:28;98512.19;;;25.37;59.14
9740;BME280;4909;42.680;26.324;2022-08-05T01:45:56;98517.31;;;25.40;58.67
9740;BME280;4909;42.680;26.324;2022-08-05T01:48:25;98514.38;;;25.26;59.17
9740;BME280;4909;42.680;26.324;2022-08-05T01:50:54;98508.75;;;25.27;59.10
9740;BME280;4909;42.680;26.324;2022-08-05T01:53:23;98515.72;;;25.30;58.96
9740;BME280;4909;42.680;26.324;2022-08-05T01:55:54;98515.25;;;25.34;59.43
9740;BME280;4909;42.680;26.324;2022-08-05T01:58:26;98517.50;;;25.13;59.44
9740;BME280;4909;42.680;26.324;2022-08-05T02:00:56;98508.84;;;25.09;60.16
9740;BME280;4909;42.680;26.324;2022-08-05T02:03:25;98503.53;;;25.00;59.68
9740;BME280;4909;42.680;26.324;2022-08-05T02:05:54;98502.88;;;24.80;60.44
9740;BME280;4909;42.680;26.324;2022-08-05T02:08:21;98502.72;;;24.74;60.76
9740;BME280;4909;42.680;26.324;2022-08-05T02:10:53;98503.84;;;24.71;61.22
9740;BME280;4909;42.680;26.324;2022-08-05T02:13:25;98509.06;;;24.64;61.55
9740;BME280;4909;42.680;26.324;2022-08-05T02:16:01;98504.00;;;24.69;61.56
9740;BME280;4909;42.680;26.324;2022-08-05T02:18:32;98507.69;;;24.86;61.00
9740;BME280;4909;42.680;26.324;2022-08-05T02:21:04;98507.56;;;24.88;60.57
9740;BME280;4909;42.680;26.324;2022-08-05T02:23:37;98512.91;;;24.80;60.67
9740;BME280;4909;42.680;26.324;2022-08-05T02:26:07;98508.94;;;24.92;60.61
9740;BME280;4909;42.680;26.324;2022-08-05T02:28:37;98512.66;;;24.91;60.53
9740;BME280;4909;42.680;26.324;2022-08-05T02:31:10;98515.59;;;24.80;60.94
9740;BME280;4909;42.680;26.324;2022-08-05T02:33:40;98503.25;;;24.85;60.51
9740;BME280;4909;42.680;26.324;2022-08-05T02:36:11;98504.09;;;24.78;60.78
9740;BME280;4909;42.680;26.324;2022-08-05T02:38:40;98503.75;;;24.81;61.12
9740;BME280;4909;42.680;26.324;2022-08-05T02:41:10;98507.75;;;24.94;60.80
9740;BME280;4909;42.680;26.324;2022-08-05T02:43:39;98507.81;;;25.02;60.28
9740;BME280;4909;42.680;26.324;2022-08-05T02:46:08;98502.53;;;25.01;60.39
9740;BME280;4909;42.680;26.324;2022-08-05T02:48:36;98472.63;;;24.93;59.98
9740;BME280;4909;42.680;26.324;2022-08-05T02:51:03;98502.03;;;25.05;59.79
9740;BME280;4909;42.680;26.324;2022-08-05T02:53:31;98497.63;;;24.79;60.78
9740;BME280;4909;42.680;26.324;2022-08-05T02:56:00;98492.16;;;24.71;61.46
9740;BME280;4909;42.680;26.324;2022-08-05T02:58:28;98490.41;;;24.61;61.93
9740;BME280;4909;42.680;26.324;2022-08-05T03:01:00;98490.88;;;24.83;60.94
9740;BME280;4909;42.680;26.324;2022-08-05T03:03:29;98489.69;;;24.85;60.73
9740;BME280;4909;42.680;26.324;2022-08-05T03:05:58;98484.75;;;24.81;60.82
9740;BME280;4909;42.680;26.324;2022-08-05T03:08:26;98499.31;;;24.80;60.81
9740;BME280;4909;42.680;26.324;2022-08-05T03:10:53;98494.91;;;24.79;61.03
9740;BME280;4909;42.680;26.324;2022-08-05T03:13:20;98495.81;;;24.61;61.21
9740;BME280;4909;42.680;26.324;2022-08-05T03:15:47;98492.84;;;24.47;61.76
9740;BME280;4909;42.680;26.324;2022-08-05T03:18:14;98494.81;;;24.37;62.42
9740;BME280;4909;42.680;26.324;2022-08-05T03:20:42;98499.97;;;24.48;61.58
9740;BME280;4909;42.680;26.324;2022-08-05T03:23:09;98504.06;;;24.52;62.63
9740;BME280;4909;42.680;26.324;2022-08-05T03:25:37;98501.72;;;24.57;61.55
9740;BME280;4909;42.680;26.324;2022-08-05T03:28:06;98496.16;;;24.58;62.10
9740;BME280;4909;42.680;26.324;2022-08-05T03:30:34;98497.53;;;24.62;62.06
9740;BME280;4909;42.680;26.324;2022-08-05T03:33:02;98500.63;;;24.67;61.95
9740;BME280;4909;42.680;26.324;2022-08-05T03:35:29;98498.69;;;24.60;62.27
9740;BME280;4909;42.680;26.324;2022-08-05T03:37:59;98486.94;;;24.51;62.40
9740;BME280;4909;42.680;26.324;2022-08-05T03:40:27;98497.69;;;24.61;61.81
9740;BME280;4909;42.680;26.324;2022-08-05T03:42:54;98502.91;;;24.54;62.23
9740;BME280;4909;42.680;26.324;2022-08-05T03:45:21;98484.38;;;24.50;62.25
9740;BME280;4909;42.680;26.324;2022-08-05T03:47:48;98501.63;;;24.66;62.44
9740;BME280;4909;42.680;26.324;2022-08-05T03:50:14;98505.19;;;24.67;62.29
9740;BME280;4909;42.680;26.324;2022-08-05T03:52:48;98489.03;;;24.57;62.48
9740;BME280;4909;42.680;26.324;2022-08-05T03:55:22;98507.66;;;24.78;62.31
9740;BME280;4909;42.680;26.324;2022-08-05T03:57:51;98508.94;;;24.92;61.80
9740;BME280;4909;42.680;26.324;2022-08-05T04:00:19;98506.78;;;25.03;61.47
9740;BME280;4909;42.680;26.324;2022-08-05T04:02:51;98503.38;;;25.01;61.77
9740;BME280;4909;42.680;26.324;2022-08-05T04:05:22;98511.56;;;25.09;61.42
9740;BME280;4909;42.680;26.324;2022-08-05T04:07:49;98505.66;;;25.14;61.53
9740;BME280;4909;42.680;26.324;2022-08-05T04:10:18;98502.41;;;25.10;61.64
9740;BME280;4909;42.680;26.324;2022-08-05T04:12:45;98501.59;;;25.18;61.02
9740;BME280;4909;42.680;26.324;2022-08-05T04:15:12;98503.41;;;25.09;60.97
9740;BME280;4909;42.680;26.324;2022-08-05T04:17:39;98501.44;;;25.20;60.94
9740;BME280;4909;42.680;26.324;2022-08-05T04:20:09;98502.06;;;25.14;61.65
9740;BME280;4909;42.680;26.324;2022-08-05T04:22:42;98500.06;;;25.16;62.28
9740;BME280;4909;42.680;26.324;2022-08-05T04:25:09;98508.06;;;25.25;62.30
9740;BME280;4909;42.680;26.324;2022-08-05T04:27:37;98500.66;;;25.35;62.30
9740;BME280;4909;42.680;26.324;2022-08-05T04:30:05;98503.22;;;25.45;62.01
9740;BME280;4909;42.680;26.324;2022-08-05T04:32:32;98502.38;;;25.44;62.18
9740;BME280;4909;42.680;26.324;2022-08-05T04:34:59;98502.47;;;25.61;61.49
9740;BME280;4909;42.680;26.324;2022-08-05T04:37:26;98507.56;;;25.72;60.44
9740;BME280;4909;42.680;26.324;2022-08-05T04:39:53;98504.19;;;25.86;60.42
9740;BME280;4909;42.680;26.324;2022-08-05T04:42:21;98495.56;;;26.07;59.38
9740;BME280;4909;42.680;26.324;2022-08-05T04:44:49;98497.75;;;26.11;58.90
9740;BME280;4909;42.680;26.324;2022-08-05T04:47:16;98498.47;;;26.21;59.12
9740;BME280;4909;42.680;26.324;2022-08-05T04:49:43;98504.25;;;26.34;58.76
9740;BME280;4909;42.680;26.324;2022-08-05T04:52:10;98503.72;;;26.55;58.43
9740;BME280;4909;42.680;26.324;2022-08-05T04:54:37;98503.72;;;26.63;58.31
9740;BME280;4909;42.680;26.324;2022-08-05T04:57:04;98492.97;;;26.70;56.87
9740;BME280;4909;42.680;26.324;2022-08-05T04:59:30;98493.13;;;26.85;57.21
9740;BME280;4909;42.680;26.324;2022-08-05T05:01:59;98498.72;;;26.83;57.06
9740;BME280;4909;42.680;26.324;2022-08-05T05:04:26;98492.47;;;26.91;56.53
9740;BME280;4909;42.680;26.324;2022-08-05T05:06:52;98486.78;;;27.08;56.12
9740;BME280;4909;42.680;26.324;2022-08-05T05:09:19;98487.25;;;27.12;55.14
9740;BME280;4909;42.680;26.324;2022-08-05T05:11:46;98487.53;;;27.33;54.72
9740;BME280;4909;42.680;26.324;2022-08-05T05:14:13;98482.03;;;27.49;54.45
9740;BME280;4909;42.680;26.324;2022-08-05T05:16:40;98488.94;;;27.60;54.32
9740;BME280;4909;42.680;26.324;2022-08-05T05:19:08;98481.75;;;27.90;52.61
9740;BME280;4909;42.680;26.324;2022-08-05T05:21:35;98481.81;;;28.27;51.22
9740;BME280;4909;42.680;26.324;2022-08-05T05:24:02;98478.06;;;28.66;50.42
9740;BME280;4909;42.680;26.324;2022-08-05T05:26:29;98489.81;;;28.66;49.99
9740;BME280;4909;42.680;26.324;2022-08-05T05:28:56;98476.94;;;28.60;49.71
9740;BME280;4909;42.680;26.324;2022-08-05T05:31:22;98479.44;;;28.47;49.53
9740;BME280;4909;42.680;26.324;2022-08-05T05:33:49;98482.25;;;28.39;49.88
9740;BME280;4909;42.680;26.324;2022-08-05T05:36:17;98481.38;;;28.38;50.11
9740;BME280;4909;42.680;26.324;2022-08-05T05:38:44;98479.44;;;28.47;49.92
9740;BME280;4909;42.680;26.324;2022-08-05T05:41:11;98475.31;;;28.51;49.75
9740;BME280;4909;42.680;26.324;2022-08-05T05:43:38;98481.88;;;28.42;49.75
9740;BME280;4909;42.680;26.324;2022-08-05T05:46:05;98468.78;;;28.37;49.86
9740;BME280;4909;42.680;26.324;2022-08-05T05:48:33;98472.38;;;28.52;49.68
9740;BME280;4909;42.680;26.324;2022-08-05T05:51:00;98476.53;;;28.48;49.57
9740;BME280;4909;42.680;26.324;2022-08-05T05:53:28;98482.84;;;28.49;48.95
9740;BME280;4909;42.680;26.324;2022-08-05T05:55:55;98476.13;;;28.51;49.03
9740;BME280;4909;42.680;26.324;2022-08-05T05:58:21;98476.16;;;28.66;48.74
9740;BME280;4909;42.680;26.324;2022-08-05T06:00:48;98477.56;;;28.62;49.08
9740;BME280;4909;42.680;26.324;2022-08-05T06:03:15;98473.31;;;28.45;48.46
9740;BME280;4909;42.680;26.324;2022-08-05T06:05:42;98477.19;;;28.50;48.51
9740;BME280;4909;42.680;26.324;2022-08-05T06:08:09;98475.41;;;28.58;48.21
9740;BME280;4909;42.680;26.324;2022-08-05T06:10:37;98472.59;;;28.51;47.02
9740;BME280;4909;42.680;26.324;2022-08-05T06:13:04;98467.78;;;28.53;47.32
9740;BME280;4909;42.680;26.324;2022-08-05T06:15:31;98480.56;;;28.75;47.34
9740;BME280;4909;42.680;26.324;2022-08-05T06:17:58;98470.47;;;28.76;46.97
9740;BME280;4909;42.680;26.324;2022-08-05T06:20:25;98462.38;;;28.82;46.87
9740;BME280;4909;42.680;26.324;2022-08-05T06:22:51;98470.19;;;29.00;46.71
9740;BME280;4909;42.680;26.324;2022-08-05T06:25:18;98477.06;;;29.11;46.65
9740;BME280;4909;42.680;26.324;2022-08-05T06:27:47;98474.81;;;29.00;45.76
9740;BME280;4909;42.680;26.324;2022-08-05T06:30:13;98470.69;;;29.04;45.96
9740;BME280;4909;42.680;26.324;2022-08-05T06:32:41;98476.78;;;29.20;45.85
9740;BME280;4909;42.680;26.324;2022-08-05T06:35:09;98483.28;;;29.34;44.73
9740;BME280;4909;42.680;26.324;2022-08-05T06:37:35;98474.13;;;29.27;44.73
9740;BME280;4909;42.680;26.324;2022-08-05T06:40:03;98478.94;;;29.40;44.69
9740;BME280;4909;42.680;26.324;2022-08-05T06:42:30;98484.13;;;29.49;43.44
9740;BME280;4909;42.680;26.324;2022-08-05T06:44:58;98473.75;;;29.45;42.03
9740;BME280;4909;42.680;26.324;2022-08-05T06:47:25;98471.41;;;29.42;44.03
9740;BME280;4909;42.680;26.324;2022-08-05T06:49:52;98475.69;;;29.65;44.21
9740;BME280;4909;42.680;26.324;2022-08-05T06:52:19;98471.78;;;29.74;42.23
9740;BME280;4909;42.680;26.324;2022-08-05T06:54:46;98462.16;;;29.78;42.73
9740;BME280;4909;42.680;26.324;2022-08-05T06:57:13;98476.56;;;29.87;43.07
9740;BME280;4909;42.680;26.324;2022-08-05T06:59:40;98476.47;;;30.16;43.15
9740;BME280;4909;42.680;26.324;2022-08-05T07:02:10;98470.34;;;30.14;40.64
9740;BME280;4909;42.680;26.324;2022-08-05T07:04:36;98474.84;;;30.01;41.70
9740;BME280;4909;42.680;26.324;2022-08-05T07:07:03;98472.66;;;30.11;41.63
9740;BME280;4909;42.680;26.324;2022-08-05T07:09:30;98481.63;;;30.05;40.27
9740;BME280;4909;42.680;26.324;2022-08-05T07:11:57;98487.81;;;30.13;40.74
9740;BME280;4909;42.680;26.324;2022-08-05T07:14:24;98472.50;;;30.19;40.84
9740;BME280;4909;42.680;26.324;2022-08-05T07:17:09;98475.50;;;30.24;39.83
9740;BME280;4909;42.680;26.324;2022-08-05T07:19:36;98476.25;;;30.39;38.57
9740;BME280;4909;42.680;26.324;2022-08-05T07:22:03;98473.06;;;30.36;39.56
9740;BME280;4909;42.680;26.324;2022-08-05T07:24:30;98468.19;;;30.52;39.10
9740;BME280;4909;42.680;26.324;2022-08-05T07:26:57;98478.59;;;30.63;38.44
9740;BME280;4909;42.680;26.324;2022-08-05T07:29:24;98472.28;;;30.70;38.22
9740;BME280;4909;42.680;26.324;2022-08-05T07:31:50;98482.09;;;30.85;38.50
9740;BME280;4909;42.680;26.324;2022-08-05T07:34:19;98469.91;;;30.88;37.31
9740;BME280;4909;42.680;26.324;2022-08-05T07:36:46;98473.59;;;31.01;37.04
9740;BME280;4909;42.680;26.324;2022-08-05T07:39:13;98471.81;;;31.22;37.10
9740;BME280;4909;42.680;26.324;2022-08-05T07:41:40;98469.13;;;31.00;36.75
9740;BME280;4909;42.680;26.324;2022-08-05T07:44:07;98465.88;;;31.18;36.49
9740;BME280;4909;42.680;26.324;2022-08-05T07:46:34;98461.19;;;31.53;36.79
9740;BME280;4909;42.680;26.324;2022-08-05T07:49:02;98468.66;;;31.66;34.81
9740;BME280;4909;42.680;26.324;2022-08-05T07:51:32;98467.72;;;31.52;34.59
9740;BME280;4909;42.680;26.324;2022-08-05T07:54:00;98471.69;;;31.36;35.16
9740;BME280;4909;42.680;26.324;2022-08-05T07:56:27;98456.38;;;31.14;35.41
9740;BME280;4909;42.680;26.324;2022-08-05T07:58:54;98450.72;;;30.88;36.62
9740;BME280;4909;42.680;26.324;2022-08-05T08:01:20;98451.75;;;31.15;35.43
9740;BME280;4909;42.680;26.324;2022-08-05T08:03:50;98471.09;;;31.06;35.32
9740;BME280;4909;42.680;26.324;2022-08-05T08:06:17;98458.00;;;31.02;35.07
9740;BME280;4909;42.680;26.324;2022-08-05T08:08:45;98472.44;;;31.17;35.45
9740;BME280;4909;42.680;26.324;2022-08-05T08:11:12;98462.09;;;31.13;34.46
9740;BME280;4909;42.680;26.324;2022-08-05T08:13:40;98454.25;;;31.10;34.67
9740;BME280;4909;42.680;26.324;2022-08-05T08:16:07;98446.00;;;31.50;35.16
9740;BME280;4909;42.680;26.324;2022-08-05T08:18:34;98453.72;;;31.88;34.84
9740;BME280;4909;42.680;26.324;2022-08-05T08:21:00;98449.09;;;31.95;34.01
9740;BME280;4909;42.680;26.324;2022-08-05T08:23:27;98453.28;;;31.91;34.16
9740;BME280;4909;42.680;26.324;2022-08-05T08:25:56;98461.28;;;31.73;34.62
9740;BME280;4909;42.680;26.324;2022-08-05T08:28:22;98449.97;;;31.48;33.71
9740;BME280;4909;42.680;26.324;2022-08-05T08:30:49;98455.81;;;31.25;34.39
9740;BME280;4909;42.680;26.324;2022-08-05T08:33:16;98448.31;;;31.06;34.42
9740;BME280;4909;42.680;26.324;2022-08-05T08:35:43;98453.16;;;31.04;34.66
9740;BME280;4909;42.680;26.324;2022-08-05T08:38:10;98446.09;;;30.88;34.54
9740;BME280;4909;42.680;26.324;2022-08-05T08:40:38;98433.31;;;30.68;35.41
9740;BME280;4909;42.680;26.324;2022-08-05T08:43:07;98445.41;;;30.52;35.49
9740;BME280;4909;42.680;26.324;2022-08-05T08:45:37;98444.44;;;30.38;36.19
9740;BME280;4909;42.680;26.324;2022-08-05T08:48:05;98442.13;;;30.14;36.67
9740;BME280;4909;42.680;26.324;2022-08-05T08:50:32;98437.34;;;30.22;36.68
9740;BME280;4909;42.680;26.324;2022-08-05T08:53:04;98440.09;;;30.22;36.69
9740;BME280;4909;42.680;26.324;2022-08-05T08:55:32;98439.16;;;30.37;35.73
9740;BME280;4909;42.680;26.324;2022-08-05T08:57:59;98440.44;;;30.41;35.71
9740;BME280;4909;42.680;26.324;2022-08-05T09:00:28;98440.66;;;30.39;35.63
9740;BME280;4909;42.680;26.324;2022-08-05T09:02:55;98420.94;;;30.50;34.50
9740;BME280;4909;42.680;26.324;2022-08-05T09:05:23;98437.34;;;30.72;35.60
9740;BME280;4909;42.680;26.324;2022-08-05T09:07:50;98426.06;;;30.60;34.75
9740;BME280;4909;42.680;26.324;2022-08-05T09:10:17;98432.69;;;30.44;35.06
9740;BME280;4909;42.680;26.324;2022-08-05T09:12:44;98416.63;;;30.41;34.52
9740;BME280;4909;42.680;26.324;2022-08-05T09:15:11;98414.81;;;30.20;34.93
9740;BME280;4909;42.680;26.324;2022-08-05T09:17:40;98420.41;;;30.12;35.29
9740;BME280;4909;42.680;26.324;2022-08-05T09:20:08;98418.00;;;30.24;35.57
9740;BME280;4909;42.680;26.324;2022-08-05T09:23:04;98419.97;;;30.37;35.93
9740;BME280;4909;42.680;26.324;2022-08-05T09:25:31;98418.09;;;30.37;36.31
9740;BME280;4909;42.680;26.324;2022-08-05T09:28:08;98391.44;;;30.46;36.11
9740;BME280;4909;42.680;26.324;2022-08-05T09:30:35;98411.81;;;30.43;36.79
9740;BME280;4909;42.680;26.324;2022-08-05T09:33:04;98410.41;;;30.47;36.70
9740;BME280;4909;42.680;26.324;2022-08-05T09:35:31;98401.91;;;30.42;36.66
9740;BME280;4909;42.680;26.324;2022-08-05T09:37:58;98398.06;;;30.58;36.68
9740;BME280;4909;42.680;26.324;2022-08-05T09:40:29;98378.38;;;30.82;35.90
9740;BME280;4909;42.680;26.324;2022-08-05T09:42:56;98394.50;;;31.46;35.32
9740;BME280;4909;42.680;26.324;2022-08-05T09:45:33;98399.84;;;31.61;35.84
9740;BME280;4909;42.680;26.324;2022-08-05T09:48:19;98406.56;;;31.58;34.25
9740;BME280;4909;42.680;26.324;2022-08-05T09:50:48;98400.59;;;31.41;34.64
9740;BME280;4909;42.680;26.324;2022-08-05T09:53:16;98387.75;;;31.55;34.85
9740;BME280;4909;42.680;26.324;2022-08-05T09:55:43;98408.06;;;31.67;34.90
9740;BME280;4909;42.680;26.324;2022-08-05T09:58:10;98396.50;;;31.98;35.32
9740;BME280;4909;42.680;26.324;2022-08-05T10:00:38;98399.28;;;32.11;33.91
9740;BME280;4909;42.680;26.324;2022-08-05T10:03:09;98404.78;;;32.24;34.05
9740;BME280;4909;42.680;26.324;2022-08-05T10:05:37;98407.50;;;32.05;34.05
9740;BME280;4909;42.680;26.324;2022-08-05T10:08:06;98395.41;;;31.66;34.80
9740;BME280;4909;42.680;26.324;2022-08-05T10:10:36;98390.19;;;31.84;35.04
9740;BME280;4909;42.680;26.324;2022-08-05T10:13:05;98400.56;;;32.15;34.76
9740;BME280;4909;42.680;26.324;2022-08-05T10:15:34;98397.81;;;32.42;33.26
9740;BME280;4909;42.680;26.324;2022-08-05T10:18:08;98395.47;;;32.52;33.52
9740;BME280;4909;42.680;26.324;2022-08-05T10:20:39;98386.53;;;32.83;33.59
9740;BME280;4909;42.680;26.324;2022-08-05T10:23:09;98388.66;;;32.87;32.64
9740;BME280;4909;42.680;26.324;2022-08-05T10:25:35;98393.97;;;32.82;32.62
9740;BME280;4909;42.680;26.324;2022-08-05T10:28:05;98410.47;;;32.69;32.56
9740;BME280;4909;42.680;26.324;2022-08-05T10:30:34;98381.03;;;32.83;32.99
9740;BME280;4909;42.680;26.324;2022-08-05T10:33:03;98389.69;;;32.93;32.02
9740;BME280;4909;42.680;26.324;2022-08-05T10:35:30;98387.19;;;32.91;31.33
9740;BME280;4909;42.680;26.324;2022-08-05T10:37:59;98388.47;;;32.69;32.41
9740;BME280;4909;42.680;26.324;2022-08-05T10:40:31;98386.13;;;32.79;32.30
9740;BME280;4909;42.680;26.324;2022-08-05T10:43:07;98380.69;;;32.53;32.18
9740;BME280;4909;42.680;26.324;2022-08-05T10:45:34;98377.88;;;32.79;32.50
9740;BME280;4909;42.680;26.324;2022-08-05T10:48:32;98374.94;;;32.74;32.77
9740;BME280;4909;42.680;26.324;2022-08-05T10:51:03;98375.78;;;32.61;32.27
9740;BME280;4909;42.680;26.324;2022-08-05T10:53:37;98368.81;;;32.59;32.32
9740;BME280;4909;42.680;26.324;2022-08-05T10:56:06;98360.16;;;32.62;32.16
9740;BME280;4909;42.680;26.324;2022-08-05T10:58:34;98354.03;;;32.66;31.41
9740;BME280;4909;42.680;26.324;2022-08-05T11:01:04;98365.00;;;32.73;32.26
9740;BME280;4909;42.680;26.324;2022-08-05T11:03:32;98368.34;;;32.88;32.93
9740;BME280;4909;42.680;26.324;2022-08-05T11:06:08;98372.84;;;32.50;32.35
9740;BME280;4909;42.680;26.324;2022-08-05T11:08:37;98373.50;;;32.45;32.69
9740;BME280;4909;42.680;26.324;2022-08-05T11:11:30;98366.94;;;32.53;32.89
9740;BME280;4909;42.680;26.324;2022-08-05T11:13:59;98366.72;;;32.61;32.95
9740;BME280;4909;42.680;26.324;2022-08-05T11:16:26;98368.41;;;32.68;32.69
9740;BME280;4909;42.680;26.324;2022-08-05T11:19:25;98364.59;;;32.56;32.14
9740;BME280;4909;42.680;26.324;2022-08-05T11:21:53;98365.47;;;32.50;32.26
9740;BME280;4909;42.680;26.324;2022-08-05T11:24:22;98362.47;;;32.58;32.60
9740;BME280;4909;42.680;26.324;2022-08-05T11:26:51;98358.06;;;32.64;32.49
9740;BME280;4909;42.680;26.324;2022-08-05T11:29:38;98364.84;;;32.42;32.15
9740;BME280;4909;42.680;26.324;2022-08-05T11:32:25;98359.16;;;32.23;33.57
9740;BME280;4909;42.680;26.324;2022-08-05T11:34:53;98368.63;;;32.08;32.38
9740;BME280;4909;42.680;26.324;2022-08-05T11:37:57;98369.91;;;31.99;32.98
9740;BME280;4909;42.680;26.324;2022-08-05T11:40:57;98357.22;;;31.98;33.50
9740;BME280;4909;42.680;26.324;2022-08-05T11:43:24;98362.94;;;32.03;33.08
9740;BME280;4909;42.680;26.324;2022-08-05T11:45:52;98360.19;;;32.03;33.07
9740;BME280;4909;42.680;26.324;2022-08-05T11:48:20;98356.00;;;32.13;32.63
9740;BME280;4909;42.680;26.324;2022-08-05T11:50:47;98356.22;;;32.18;32.71
9740;BME280;4909;42.680;26.324;2022-08-05T11:53:15;98341.19;;;32.27;32.63
9740;BME280;4909;42.680;26.324;2022-08-05T11:55:52;98353.00;;;32.48;32.19
9740;BME280;4909;42.680;26.324;2022-08-05T11:58:34;98345.97;;;32.58;31.43
9740;BME280;4909;42.680;26.324;2022-08-05T12:01:01;98341.34;;;32.65;30.67
9740;BME280;4909;42.680;26.324;2022-08-05T12:03:29;98311.78;;;32.67;30.90
9740;BME280;4909;42.680;26.324;2022-08-05T12:06:01;98337.31;;;32.68;30.94
9740;BME280;4909;42.680;26.324;2022-08-05T12:08:29;98346.22;;;32.57;31.44
9740;BME280;4909;42.680;26.324;2022-08-05T12:10:57;98346.63;;;32.60;31.65
9740;BME280;4909;42.680;26.324;2022-08-05T12:13:24;98326.19;;;32.37;31.94
9740;BME280;4909;42.680;26.324;2022-08-05T12:15:53;98344.97;;;32.40;32.16
9740;BME280;4909;42.680;26.324;2022-08-05T12:18:27;98337.81;;;32.25;32.31
9740;BME280;4909;42.680;26.324;2022-08-05T12:20:54;98340.16;;;32.28;31.84
9740;BME280;4909;42.680;26.324;2022-08-05T12:23:21;98337.97;;;32.44;32.14
9740;BME280;4909;42.680;26.324;2022-08-05T12:25:50;98342.44;;;32.45;32.76
9740;BME280;4909;42.680;26.324;2022-08-05T12:28:31;98348.75;;;32.52;32.86
9740;BME280;4909;42.680;26.324;2022-08-05T12:31:00;98346.06;;;32.39;33.04
9740;BME280;4909;42.680;26.324;2022-08-05T12:33:27;98341.41;;;32.26;32.78
9740;BME280;4909;42.680;26.324;2022-08-05T12:35:54;98343.53;;;32.24;33.25
9740;BME280;4909;42.680;26.324;2022-08-05T12:38:22;98335.28;;;32.17;33.31
9740;BME280;4909;42.680;26.324;2022-08-05T12:40:50;98327.06;;;32.11;33.26
9740;BME280;4909;42.680;26.324;2022-08-05T12:43:18;98321.53;;;31.98;33.64
9740;BME280;4909;42.680;26.324;2022-08-05T12:45:50;98324.94;;;31.93;33.74
9740;BME280;4909;42.680;26.324;2022-08-05T12:48:19;98324.75;;;32.14;33.61
9740;BME280;4909;42.680;26.324;2022-08-05T12:51:09;98322.00;;;32.14;33.69
9740;BME280;4909;42.680;26.324;2022-08-05T12:53:40;98314.78;;;32.07;32.70
9740;BME280;4909;42.680;26.324;2022-08-05T12:56:20;98313.53;;;32.22;32.36
9740;BME280;4909;42.680;26.324;2022-08-05T12:59:14;98312.88;;;32.20;32.99
9740;BME280;4909;42.680;26.324;2022-08-05T13:01:43;98306.78;;;32.18;33.08
9740;BME280;4909;42.680;26.324;2022-08-05T13:04:12;98312.69;;;32.15;33.45
9740;BME280;4909;42.680;26.324;2022-08-05T13:06:40;98308.84;;;32.36;33.38
9740;BME280;4909;42.680;26.324;2022-08-05T13:09:09;98302.09;;;32.32;34.00
9740;BME280;4909;42.680;26.324;2022-08-05T13:11:38;98303.75;;;32.40;33.72
9740;BME280;4909;42.680;26.324;2022-08-05T13:14:13;98305.25;;;32.35;33.84
9740;BME280;4909;42.680;26.324;2022-08-05T13:16:54;98278.47;;;32.11;34.28
9740;BME280;4909;42.680;26.324;2022-08-05T13:19:24;98305.69;;;32.26;33.08
9740;BME280;4909;42.680;26.324;2022-08-05T13:21:52;98309.72;;;32.23;31.30